KELK

Elk City Regional Business Airport

Elk City, Oklahoma, USA
METAR KELK 210355Z AUTO 31005KT 10SM CLR 19/15 A3013 RMK AO2 T01880149
Observed Flight Rules
Aug-21 @ 03:55 UTC (17 minutes ago) Visual Flight Rules
Wind Visibility Clouds
310° at 5 knots 10 miles
  • Clear skies
Temperatures Readings
Current 19°C / 66°F
Dewpoint 15°C / 59°F
Humidity 78%
Altimeter 30.13" Hg
Pressure 1020 hPa
Elevation 610
METAR KELK 210355Z AUTO 31005KT 10SM CLR 19/15 A3013 RMK AO2 T01880149
Observed Flight Rules
Aug-21 @ 03:55 UTC
(17 minutes ago)
VFR
Wind Visibility
310° at 5 knots 10 miles
Clouds
  • Clear skies
Temperature Dewpoint
19°C / 66°F 15°C / 59°F
Humidity Altimeter Pressure
78% 30.13" Hg 1020 hPa